METAR Data
IDs: Format: Raw Decoded Include TAF

Data at: 2050 UTC 19 May 2019

PAZK 191156Z AUTO 35005KT 10SM CLR 01/M01 A2977 RMK AO2 SLP115 T00111006 10050 20011 58003 FZRANO
PAZK 190156Z AUTO 02012G17KT 10SM FEW070 SCT110 09/01 A2974 RMK AO2 SLP104 T00940006
PAZK 181456Z AUTO 23007KT 10SM SCT100 00/M02 A2969 RMK AO2 SLP085 T00001017 50001 FZRANO
PAZK 181056Z AUTO 22007KT 10SM CLR 01/M03 A2968 RMK AO2 SLP080 T00111033 FZRANO